createdAt,value
2018-06-21T00:03:11.489Z,100327.11
2018-06-21T00:07:50.026Z,100324.78
2018-06-21T00:12:32.038Z,100325.94
2018-06-21T00:17:10.673Z,100331.18
2018-06-21T00:21:52.305Z,100330.02
2018-06-21T00:26:30.855Z,100322.71
2018-06-21T00:31:09.499Z,100322.73
2018-06-21T00:35:51.771Z,100318.19
2018-06-21T00:40:30.381Z,100309.67
2018-06-21T00:45:12.739Z,100309.56
2018-06-21T00:49:51.374Z,100305.72
2018-06-21T00:54:33.472Z,100311.15
2018-06-21T00:59:12.001Z,100314.22
2018-06-21T01:03:54.369Z,100309.70
2018-06-21T01:08:32.989Z,100309.08
2018-06-21T01:13:14.845Z,100309.74
2018-06-21T01:17:53.472Z,100311.56
2018-06-21T01:22:32.230Z,100307.25
2018-06-21T01:27:11.614Z,100303.61
2018-06-21T01:31:50.483Z,100301.66
2018-06-21T01:36:29.032Z,100300.70
2018-06-21T01:41:07.614Z,100297.53
2018-06-21T01:45:47.407Z,100299.08
2018-06-21T01:50:25.935Z,100295.71
2018-06-21T01:55:05.302Z,100293.27
2018-06-21T01:59:43.768Z,100291.08
2018-06-21T02:04:26.065Z,100298.25
2018-06-21T02:09:08.625Z,100294.11
2018-06-21T02:13:47.259Z,100293.17
2018-06-21T02:18:25.913Z,100291.33
2018-06-21T02:23:05.573Z,100291.21
2018-06-21T02:27:44.241Z,100290.48
2018-06-21T02:32:26.168Z,100290.47
2018-06-21T02:37:04.766Z,100283.90
2018-06-21T02:41:46.687Z,100293.50
2018-06-21T02:46:25.310Z,100301.55
2018-06-21T02:51:03.941Z,100299.13
2018-06-21T02:55:42.529Z,100296.82
2018-06-21T03:00:21.162Z,100298.87
2018-06-21T03:05:02.843Z,100302.78
2018-06-21T03:09:41.356Z,100298.63
2018-06-21T03:14:23.200Z,100297.16
2018-06-21T03:19:01.771Z,100300.64
2018-06-21T03:23:43.846Z,100301.46
2018-06-21T03:28:22.514Z,100302.19
2018-06-21T03:33:02.262Z,100297.63
2018-06-21T03:37:40.988Z,100300.34
2018-06-21T03:42:23.370Z,100311.63
2018-06-21T03:47:02.059Z,100317.12
2018-06-21T03:51:44.661Z,100310.47
2018-06-21T03:56:23.753Z,100301.16
2018-06-21T04:01:06.376Z,100294.13
2018-06-21T04:05:44.929Z,100298.52
2018-06-21T04:10:23.607Z,100300.58
2018-06-21T04:15:05.852Z,100301.32
2018-06-21T04:19:44.285Z,100300.20
2018-06-21T04:24:23.819Z,100298.60
2018-06-21T04:29:02.426Z,100301.45
2018-06-21T04:33:41.304Z,100300.95
2018-06-21T04:38:19.979Z,100307.48
2018-06-21T04:42:58.518Z,100315.06
2018-06-21T04:47:37.070Z,100310.61
2018-06-21T04:52:16.687Z,100304.06
2018-06-21T04:56:55.182Z,100306.31
2018-06-21T05:01:35.425Z,100310.45
2018-06-21T05:06:14.017Z,100304.69
2018-06-21T05:10:52.516Z,100290.39
2018-06-21T05:15:31.201Z,100291.84
2018-06-21T05:20:09.770Z,100287.89
2018-06-21T05:24:49.222Z,100293.44
2018-06-21T05:29:27.604Z,100293.06
2018-06-21T05:34:14.247Z,100286.59
2018-06-21T05:38:52.798Z,100287.45
2018-06-21T05:43:35.149Z,100291.16
2018-06-21T05:48:13.739Z,100287.19
2018-06-21T05:52:53.525Z,100286.22
2018-06-21T05:57:32.047Z,100289.77
2018-06-21T06:02:10.853Z,100278.31
2018-06-21T06:06:49.463Z,100282.39
2018-06-21T06:11:28.120Z,100266.77
2018-06-21T06:16:06.755Z,100267.72
2018-06-21T06:20:45.242Z,100260.64
2018-06-21T06:25:23.726Z,100256.70
2018-06-21T06:30:02.258Z,100252.59
2018-06-21T06:34:41.858Z,100250.02
2018-06-21T06:39:21.550Z,100238.67
2018-06-21T06:44:01.200Z,100233.31
2018-06-21T06:48:39.851Z,100231.30
2018-06-21T06:53:19.543Z,100232.34
2018-06-21T06:57:58.124Z,100236.07
2018-06-21T07:02:37.745Z,100233.67
2018-06-21T07:07:16.220Z,100235.61
2018-06-21T07:11:54.788Z,100232.63
2018-06-21T07:16:33.495Z,100230.37
2018-06-21T07:21:12.270Z,100237.88
2018-06-21T07:25:51.710Z,100239.14
2018-06-21T07:30:31.313Z,100231.16
2018-06-21T07:35:09.912Z,100233.48
2018-06-21T07:39:48.474Z,100226.66
2018-06-21T07:44:30.961Z,100226.86
2018-06-21T07:49:09.475Z,100225.41
2018-06-21T07:53:48.073Z,100228.53
2018-06-21T07:58:26.617Z,100219.34
2018-06-21T08:03:08.342Z,100217.75
2018-06-21T08:07:46.768Z,100219.27
2018-06-21T08:12:28.296Z,100208.10
2018-06-21T08:17:07.511Z,100209.09
2018-06-21T08:21:49.393Z,100204.77
2018-06-21T08:26:27.851Z,100188.50
2018-06-21T08:31:07.294Z,100191.62
2018-06-21T08:35:45.792Z,100185.36
2018-06-21T08:40:27.961Z,100184.52
2018-06-21T08:45:06.511Z,100175.89
2018-06-21T08:49:44.977Z,100167.72
2018-06-21T08:54:24.613Z,100169.91
2018-06-21T08:59:03.159Z,100164.16
2018-06-21T09:03:41.760Z,100159.45
2018-06-21T09:08:20.322Z,100160.62
2018-06-21T09:12:59.988Z,100156.78
2018-06-21T09:17:38.445Z,100149.48
2018-06-21T09:22:17.049Z,100145.92
2018-06-21T09:26:55.626Z,100133.25
2018-06-21T09:31:35.343Z,100136.61
2018-06-21T09:36:13.866Z,100133.41
2018-06-21T09:41:01.448Z,100131.20
2018-06-21T09:45:45.357Z,100123.91
2018-06-21T09:50:27.096Z,100114.28
2018-06-21T09:55:05.710Z,100108.08
2018-06-21T09:59:44.397Z,100110.12
2018-06-21T10:04:23.058Z,100095.69
2018-06-21T10:09:01.577Z,100091.80
2018-06-21T10:13:43.749Z,100087.59
2018-06-21T10:18:22.379Z,100087.85
2018-06-21T10:23:04.316Z,100086.86
2018-06-21T10:27:42.796Z,100081.12
2018-06-21T10:32:22.442Z,100073.04
2018-06-21T10:37:01.121Z,100046.39
2018-06-21T10:41:41.469Z,100060.87
2018-06-21T10:46:20.134Z,100064.38
2018-06-21T10:50:58.724Z,100060.87
2018-06-21T10:55:37.232Z,100045.75
2018-06-21T11:00:16.737Z,100040.83
2018-06-21T11:04:55.289Z,100035.39
2018-06-21T11:09:33.828Z,100043.05
2018-06-21T11:14:13.222Z,100040.20
2018-06-21T11:18:51.990Z,100050.48
2018-06-21T11:23:31.679Z,100050.19
2018-06-21T11:28:10.345Z,100045.84
2018-06-21T11:32:49.868Z,100039.92
2018-06-21T11:37:28.454Z,100039.69
2018-06-21T11:42:08.090Z,100034.77
2018-06-21T11:46:46.779Z,100030.39
2018-06-21T11:51:31.282Z,100022.93
2018-06-21T11:56:09.744Z,100010.73
2018-06-21T12:00:49.434Z,100011.12
2018-06-21T12:05:27.905Z,100004.69
2018-06-21T12:10:07.150Z,100008.95
2018-06-21T12:14:45.602Z,100003.56
2018-06-21T12:19:24.239Z,99993.57
2018-06-21T12:24:04.504Z,99991.52
2018-06-21T12:28:43.023Z,99987.09
2018-06-21T12:33:23.361Z,99971.42
2018-06-21T12:38:01.957Z,99976.66
2018-06-21T12:42:41.502Z,99984.77
2018-06-21T12:47:20.047Z,99984.41
2018-06-21T12:51:59.897Z,99992.13
2018-06-21T12:56:38.702Z,99992.94
2018-06-21T13:01:18.034Z,99991.60
2018-06-21T13:05:56.239Z,99987.23
2018-06-21T13:10:46.547Z,99986.30
2018-06-21T13:15:25.194Z,99976.27
2018-06-21T13:20:07.230Z,99979.03
2018-06-21T13:24:45.840Z,99965.38
2018-06-21T13:29:24.399Z,99956.37
2018-06-21T13:34:03.010Z,99958.77
2018-06-21T13:38:41.654Z,99961.56
2018-06-21T13:43:21.430Z,99963.36
2018-06-21T13:48:00.082Z,99965.48
2018-06-21T13:52:39.726Z,99971.22
2018-06-21T13:57:18.318Z,99972.50
2018-06-21T14:02:00.599Z,99976.55
2018-06-21T14:06:39.219Z,99987.07
2018-06-21T14:11:17.957Z,99995.34
2018-06-21T14:15:56.410Z,100000.42
2018-06-21T14:20:40.032Z,100019.14
2018-06-21T14:25:18.786Z,100048.44
2018-06-21T14:29:58.444Z,100041.65
2018-06-21T14:34:37.162Z,100032.12
2018-06-21T14:39:16.071Z,100029.82
2018-06-21T14:43:55.869Z,100030.81
2018-06-21T14:48:34.619Z,100026.23
2018-06-21T14:53:17.188Z,100020.40
2018-06-21T14:57:55.837Z,100008.30
2018-06-21T15:02:37.863Z,100011.19
2018-06-21T15:07:16.497Z,100012.20
2018-06-21T15:11:56.318Z,100014.23
2018-06-21T15:16:34.902Z,100003.48
2018-06-21T15:21:15.303Z,100002.84
2018-06-21T15:25:53.865Z,99991.02
2018-06-21T15:30:35.926Z,99988.50
2018-06-21T15:35:14.498Z,99981.41
2018-06-21T15:39:54.123Z,99980.41
2018-06-21T15:44:32.634Z,99986.20
2018-06-21T15:49:11.285Z,99976.43
2018-06-21T15:53:49.913Z,99967.62
2018-06-21T15:58:28.553Z,99962.20
2018-06-21T16:03:07.193Z,99963.92
2018-06-21T16:07:45.767Z,99961.08
2018-06-21T16:12:27.486Z,99954.81
2018-06-21T16:17:06.151Z,99951.75
2018-06-21T16:21:46.064Z,99943.98
2018-06-21T16:26:24.730Z,99948.05
2018-06-21T16:31:04.725Z,99942.63
2018-06-21T16:35:43.323Z,99949.41
2018-06-21T16:40:24.903Z,99946.02
2018-06-21T16:45:03.394Z,99945.85
2018-06-21T16:49:45.405Z,99940.97
2018-06-21T16:54:24.043Z,99937.07
2018-06-21T16:59:03.732Z,99937.41
2018-06-21T17:03:42.246Z,99937.75
2018-06-21T17:08:20.826Z,99941.96
2018-06-21T17:13:02.621Z,99938.25
2018-06-21T17:17:41.542Z,99943.49
2018-06-21T17:22:23.604Z,99934.35
2018-06-21T17:27:04.214Z,99938.77
2018-06-21T17:31:45.994Z,99935.88
2018-06-21T17:36:24.698Z,99936.51
2018-06-21T17:41:04.236Z,99928.58
2018-06-21T17:45:43.574Z,99930.06
2018-06-21T17:50:25.473Z,99919.05
2018-06-21T17:55:04.104Z,99925.81
2018-06-21T17:59:46.366Z,99920.19
2018-06-21T18:04:24.981Z,99921.48
2018-06-21T18:09:04.536Z,99917.85
2018-06-21T18:13:43.226Z,99924.20
2018-06-21T18:18:21.633Z,99920.00
2018-06-21T18:23:00.398Z,99917.59
2018-06-21T18:27:39.973Z,99915.63
2018-06-21T18:32:22.498Z,99919.08
2018-06-21T18:37:01.011Z,99928.14
2018-06-21T18:41:40.796Z,99936.72
2018-06-21T18:46:19.601Z,99935.91
2018-06-21T18:50:58.160Z,99938.52
2018-06-21T18:55:37.228Z,99948.64
2018-06-21T19:00:15.984Z,99958.81
2018-06-21T19:04:55.843Z,99968.16
2018-06-21T19:09:40.502Z,99976.27
2018-06-21T19:14:19.142Z,99980.28
2018-06-21T19:18:58.092Z,99978.55
2018-06-21T19:23:37.130Z,99978.75
2018-06-21T19:28:16.298Z,99987.95
2018-06-21T19:33:03.824Z,99988.61
2018-06-21T19:37:44.226Z,99981.61
2018-06-21T19:42:24.102Z,99978.67
2018-06-21T19:47:03.134Z,99988.61
2018-06-21T19:51:42.877Z,99997.84
2018-06-21T19:56:22.259Z,99995.11
2018-06-21T20:01:02.237Z,99991.84
2018-06-21T20:05:41.097Z,99983.51
2018-06-21T20:10:21.061Z,99987.16
2018-06-21T20:14:59.972Z,99987.73
2018-06-21T20:19:44.216Z,99983.38
2018-06-21T20:24:23.103Z,99989.16
2018-06-21T20:29:02.795Z,99980.66
2018-06-21T20:33:43.059Z,99980.14
2018-06-21T20:38:21.842Z,99975.17
2018-06-21T20:43:04.095Z,99978.50
2018-06-21T20:47:42.966Z,99974.98
2018-06-21T20:52:29.508Z,99972.85
2018-06-21T20:57:08.300Z,99970.25
2018-06-21T21:01:50.623Z,99967.39
2018-06-21T21:06:29.432Z,99961.88
2018-06-21T21:11:11.340Z,99946.84
2018-06-21T21:15:50.123Z,99941.85
2018-06-21T21:20:32.526Z,99937.56
2018-06-21T21:25:11.192Z,99936.85
2018-06-21T21:29:51.163Z,99942.84
2018-06-21T21:34:30.127Z,99938.56
2018-06-21T21:39:10.546Z,99934.77
2018-06-21T21:43:49.250Z,99919.44
2018-06-21T21:48:28.032Z,99919.19
2018-06-21T21:53:06.684Z,99920.77
2018-06-21T21:57:45.355Z,99914.34
2018-06-21T22:02:23.991Z,99910.57
2018-06-21T22:07:02.849Z,99904.41
2018-06-21T22:11:42.713Z,99899.17
2018-06-21T22:16:21.243Z,99900.80
2018-06-21T22:21:00.883Z,99893.20
2018-06-21T22:25:39.505Z,99896.44
2018-06-21T22:30:21.167Z,99893.60
2018-06-21T22:34:59.823Z,99888.49
2018-06-21T22:39:43.535Z,99878.59
2018-06-21T22:44:22.247Z,99872.70
2018-06-21T22:49:01.990Z,99869.25
2018-06-21T22:53:40.950Z,99875.69
2018-06-21T22:58:20.765Z,99873.64
2018-06-21T23:02:59.585Z,99861.09
2018-06-21T23:07:38.296Z,99861.19
2018-06-21T23:12:20.412Z,99859.88
2018-06-21T23:16:59.274Z,99853.07
2018-06-21T23:21:41.963Z,99849.42
2018-06-21T23:26:20.821Z,99851.13
2018-06-21T23:31:01.397Z,99863.30
2018-06-21T23:35:40.080Z,99867.43
2018-06-21T23:40:19.877Z,99864.31
2018-06-21T23:44:58.658Z,99855.11
2018-06-21T23:49:38.460Z,99840.87
2018-06-21T23:54:17.194Z,99844.31
2018-06-21T23:58:59.914Z,99841.80
